• Join FlightAware (Why Join?)
  • Login
  • US Flag 
06:38PM EST


 

Airport Tracker/Info


-or-


 

Live Flight TrackerFlight Track Log ✈ N830QS ✈ 15-Jan-2014 ✈ KTEB - KMDW

Flight Track Log - Related Links

Times and Time Zones

All times are in EST time to prevent confusion due to time zone crossing. See the N830QS flight status page for this flight to view local times or setup timezone preferences in your user account.

Time Position Orientation Groundspeed Altitude Reporting Facility
EST Latitude Longitude Course Direction KTS MPH feet Rate Location/Type
06:04AM 40.7875 -75.0686 279° West 268 308 31,800  Level New York Center
06:05AM 40.7922 -75.1647 274° West 274 315 33,700 1,620 Climbing New York Center
06:06AM 40.9548 -74.8940 280° West  Level Estimated
06:06AM 40.7969 -75.2639 274° West 274 315 35,100  Level New York Center
06:07AM 40.9698 -75.0179 279° West  Level Estimated
06:07AM 40.7994 -75.3625 272° West 274 315 36,600  Level New York Center
06:08AM 40.9847 -75.1420 279° West  Level Estimated
06:08AM 40.8058 -75.4617 275° West 274 315 38,000  Level New York Center
06:09AM 40.9994 -75.2660 279° West  Level Estimated
06:09AM 40.8106 -75.5581 274° West 274 315 38,500  Level New York Center
06:10AM 40.8147 -75.6569 273° West 274 315 39,300 720 Climbing New York Center
06:11AM 40.8211 -75.7564 275° West 274 315 40,000 300 Climbing New York Center
06:12AM 40.8269 -75.8636 274° West 280 322 40,000  Level New York Center
06:13AM 40.8386 -75.9742 278° West 295 339 40,000  Level New York Center
06:14AM 40.8503 -76.0875 278° West 307 353 40,000  Level New York Center
06:15AM 40.8658 -76.2069 280° West 318 366 40,000  Level New York Center
06:16AM 40.8789 -76.3258 278° West 324 373 40,000  Level New York Center
06:17AM 40.8919 -76.4450 278° West 329 379 40,000  Level New York Center
06:18AM 40.9050 -76.5642 278° West 334 384 40,000  Level New York Center
06:19AM 40.9175 -76.6889 278° West 334 384 40,000  Level New York Center
06:20AM 40.9300 -76.8136 278° West 334 384 40,000  Level New York Center
06:21AM 40.9447 -76.9358 279° West 334 384 40,000  Level New York Center
06:22AM 40.9567 -77.0633 277° West 339 390 40,000  Level New York Center
06:23AM 40.9711 -77.1828 279° West 339 390 40,000  Level New York Center
06:24AM 40.9933 -77.4081 278° West 341 392 40,000  Level Cleveland Center
06:25AM 41.0050 -77.5317 277° West 340 391 40,000  Level Cleveland Center
06:26AM 41.0175 -77.6539 278° West 338 389 40,000  Level Cleveland Center
06:27AM 41.0294 -77.7781 277° West 342 394 40,000  Level Cleveland Center
06:28AM 41.0414 -77.9033 277° West 344 396 40,000  Level Cleveland Center
06:29AM 41.0531 -78.0261 277° West 340 391 40,000  Level Cleveland Center
06:30AM 41.0650 -78.1497 277° West 342 394 40,000  Level Cleveland Center
06:31AM 41.0772 -78.2853 277° West 340 391 40,000  Level Cleveland Center
06:32AM 41.0889 -78.4100 277° West 341 392 40,000  Level Cleveland Center
06:33AM 41.1014 -78.5325 278° West 338 389 40,000  Level Cleveland Center
06:34AM 41.1114 -78.6539 276° West 336 387 40,000  Level Cleveland Center
06:35AM 41.1222 -78.7767 277° West 335 386 40,000  Level Cleveland Center
06:36AM 41.1336 -78.8972 277° West 334 384 40,000  Level Cleveland Center
06:37AM 41.1417 -79.0144 275° West 326 375 40,000  Level Cleveland Center
06:38AM 41.1528 -79.1386 277° West 334 384 40,000  Level Cleveland Center
06:40AM 41.1625 -79.2628 276° West 339 390 40,000  Level Cleveland Center
06:41AM 41.1739 -79.3928 277° West 353 406 40,000  Level Cleveland Center
06:42AM 41.1856 -79.5389 276° West 339 390 40,000  Level Cleveland Center
06:43AM 41.1950 -79.6617 276° West 336 387 40,000  Level Cleveland Center
06:44AM 41.2047 -79.7847 276° West 335 386 40,000  Level Cleveland Center
06:45AM 41.2144 -79.9097 276° West 339 390 40,000  Level Cleveland Center
06:46AM 41.2239 -80.0353 276° West 344 396 40,000  Level Cleveland Center
06:47AM 41.2331 -80.1625 276° West 348 400 40,000  Level Cleveland Center
06:48AM 41.2422 -80.2856 276° West 342 394 40,000  Level Cleveland Center
06:49AM 41.2533 -80.4222 276° West 338 389 40,000  Level Cleveland Center
06:50AM 41.2633 -80.5500 276° West 343 395 40,000  Level Cleveland Center
06:51AM 41.2717 -80.6767 275° West 343 395 40,000  Level Cleveland Center
06:52AM 41.2806 -80.8056 275° West 347 399 40,000  Level Cleveland Center
06:53AM 41.2889 -80.9325 275° West 343 395 40,000  Level Cleveland Center
06:54AM 41.2983 -81.0614 276° West 348 400 40,000  Level Cleveland Center
06:55AM 41.3069 -81.1914 275° West 348 400 40,000  Level Cleveland Center
06:56AM 41.3156 -81.3217 275° West 349 402 40,000  Level Cleveland Center
06:57AM 41.3236 -81.4525 275° West 353 406 40,000  Level Cleveland Center
06:58AM 41.3317 -81.5828 275° West 355 409 40,000  Level Cleveland Center
06:59AM 41.3397 -81.7119 275° West 353 406 40,000  Level Cleveland Center
07:00AM 41.3478 -81.8419 275° West 354 407 40,000  Level Cleveland Center
07:01AM 41.3572 -81.9958 275° West 366 421 40,000  Level Cleveland Center
07:02AM 41.3656 -82.1314 275° West 365 420 40,000  Level Cleveland Center
07:03AM 41.3736 -82.2681 275° West 366 421 40,000  Level Cleveland Center
07:04AM 41.3814 -82.4039 274° West 366 421 40,000  Level Cleveland Center
07:05AM 41.3886 -82.5392 274° West 363 418 40,000  Level Cleveland Center
07:06AM 41.3953 -82.6753 274° West 365 420 40,000  Level Cleveland Center
07:07AM 41.4036 -82.8114 275° West 365 420 40,000  Level Cleveland Center
07:08AM 41.4106 -82.9464 274° West 362 417 40,000  Level Cleveland Center
07:09AM 41.4164 -83.0814 273° West 363 418 40,000  Level Cleveland Center
07:10AM 41.4239 -83.2136 274° West 359 413 40,000  Level Cleveland Center
07:11AM 41.4308 -83.3450 274° West 357 411 40,000  Level Cleveland Center
07:12AM 41.4381 -83.5033 274° West 357 411 40,000  Level Cleveland Center
07:13AM 41.4431 -83.6347 273° West 356 410 40,000  Level Cleveland Center
07:14AM 41.4494 -83.7644 274° West 351 404 40,000 -120 Level Cleveland Center
07:15AM 41.4550 -83.8964 273° West 354 407 39,800 -1,080 Descending Cleveland Center
07:16AM 41.4608 -84.0297 273° West 360 414 37,900 -1,860 Descending Cleveland Center
07:17AM 41.4661 -84.1644 273° West 362 417 36,000 -1,980 Descending Cleveland Center
07:18AM 41.4717 -84.3072 273° West 372 428 33,900 -1,980 Descending Chicago Center
07:19AM 41.4758 -84.4425 272° West 368 423 32,000 -1,920 Descending Chicago Center
07:20AM 41.4814 -84.5817 273° West 374 430 30,100 -1,020 Descending Chicago Center
07:21AM 41.4864 -84.7189 273° West 373 429 30,000 -60 Descending Chicago Center
07:22AM 41.4919 -84.8611 273° West 382 440 30,000  Level Chicago Center
07:23AM 41.4964 -85.0014 272° West 380 437 30,000 -660 Level Chicago Center
07:24AM 41.5011 -85.1428 273° West 382 440 28,700 -1,680 Descending Chicago Center
07:25AM 41.5056 -85.2853 272° West 381 438 26,700 -2,040 Descending Chicago Center
07:26AM 41.5103 -85.4289 273° West 380 437 24,600 -1,980 Descending Chicago Center
07:27AM 41.5131 -85.5672 272° West 366 421 22,700 -1,920 Descending Chicago Center
07:28AM 41.5167 -85.6989 272° West 355 409 20,800 -1,920 Descending Chicago Center
07:29AM 41.5200 -85.8306 272° West 353 406 18,900 -1,860 Descending Chicago Center
07:30AM 41.5228 -85.9606 272° West 351 404 17,100 -1,800 Descending Chicago Center
07:31AM 41.5244 -86.0861 271° West 342 394 15,300 -1,920 Descending Chicago Center
07:32AM 41.5239 -86.2317 270° West 327 376 13,200 -1,800 Descending Chicago Center
07:33AM 41.5233 -86.3439 270° West 306 352 11,700 -1,320 Descending Chicago Center
07:34AM 41.5217 -86.4606 269° West 313 360 10,600 -840 Descending Chicago Center
07:36AM 41.5214 -86.5719 270° West 303 349 10,000 -360 Descending Chicago Center
07:37AM 41.5211 -86.6847 270° West 306 352 9,900 -60 Descending Chicago Center
07:38AM 41.5206 -86.8061 270° West 302 348 9,900 -240 Level Chicago Center
07:39AM 41.5181 -86.9069 268° West 278 320 9,500 -840 Descending Chicago Center
07:40AM 41.5175 -87.0039 270° West 264 304 8,200 -1,320 Descending Chicago Center
07:41AM 41.5272 -87.0978 278° West 258 297 6,900 -1,320 Descending Chicago Center
07:42AM 41.5456 -87.1881 285° West 253 291 5,500 -1,320 Descending Chicago Center
07:43AM 41.5697 -87.2681 292° West 240 276 4,200 -780 Descending Chicago Center
07:44AM 41.5936 -87.3478 292° West 236 272 4,000 -120 Descending Chicago Center
07:45AM 41.6167 -87.4292 291° West 235 270 4,000  Level Chicago Center
07:46AM 41.6397 -87.5089 291° West 234 269 4,000  Level Chicago Center
07:47AM 41.6694 -87.5875 297° West 214 246 4,000 -480 Level Chicago Center
07:48AM 41.7014 -87.6356 312° West 187 215 3,100 -900 Descending Chicago Center
07:49AM 41.7306 -87.6764 314° West 171 197 2,200 -780 Descending Chicago Center
07:50AM 41.7514 -87.7047 315° West 137 158 1,600 -600 Descending Chicago Center
07:51AM 41.7694 -87.7303 313° West 111 128 1,000 -600 Descending Chicago Center
07:53AM 41.7860 -87.7524 315° West  Level Estimated
08:00AM 41.7860 -87.7524 48° Northeast  Level Estimated